Data for 03/28/2013

Time Sea-Level Adjusted Pressure Absolute Pressure Temperature Relative Humidity Dew Point   
(mb) (inHg) (mb) (inHg) (C) (F) (%) (C) (F)
00:05 1018 30.06 847 25.01 2.2 35.9 66 -3.5 25.7
00:10 1018 30.06 847 25.01 2.2 35.9 65 -3.8 25.2
00:15 1018 30.06 847 25.01 2.4 36.3 64 -3.8 25.1
00:20 1018 30.06 847 25.01 2.4 36.3 64 -3.8 25.2
00:25 1018 30.06 847 25.01 2.4 36.2 63 -3.9 25
00:30 1018 30.06 847 25.01 2.4 36.3 64 -3.8 25.1
00:35 1018 30.06 847 25.01 2.4 36.2 64 -3.8 25.1
00:40 1018 30.06 847 25.01 2.3 36.1 63 -4 24.8
00:45 1018 30.06 847 25.01 2.4 36.3 63 -3.9 25
00:50 1018 30.06 847 25.01 2.1 35.8 65 -3.7 25.4
00:55 1018 30.06 847 25.01 1.5 34.8 67 -4 24.8
01:00 1018 30.06 847 25.01 1.4 34.6 67 -4 24.8
01:05 1018 30.06 847 25.01 1.6 34.8 66 -4 24.8
01:10 1018 30.06 847 25.01 1.5 34.7 67 -3.9 24.9
01:15 1018 30.06 847 25.01 1.3 34.3 67 -4.1 24.6
01:20 1018 30.06 847 25.01 1.4 34.6 67 -4.1 24.6
01:25 1018 30.06 847 25.01 1.6 34.8 66 -4.2 24.5
01:30 1018 30.06 847 25.01 1.6 34.9 66 -4.1 24.6
01:35 1018 30.06 847 25.01 1.8 35.2 64 -4.3 24.2
01:40 1018 30.06 847 25.01 2 35.5 64 -4.1 24.7
01:45 1018 30.06 847 25.01 1.9 35.4 65 -4 24.9
01:50 1018 30.06 847 25.01 1.9 35.4 65 -4 24.8
01:55 1018 30.06 847 25.01 1.5 34.7 67 -4 24.8
02:00 1018 30.06 847 25.01 1.2 34.2 66 -4.4 24
02:05 1018 30.06 847 25.01 1.6 34.8 64 -4.4 24
02:10 1018 30.06 847 25.01 1.8 35.2 64 -4.4 24.1
02:15 1018 30.06 847 25.01 2.1 35.8 61 -4.6 23.6
02:20 1018 30.06 847 25.01 2.3 36.1 61 -4.5 23.9
02:25 1018 30.06 847 25.01 2.3 36.1 62 -4.4 24.1
02:30 1018 30.06 847 25.01 1.9 35.5 63 -4.3 24.2
02:35 1018 30.06 847 25.01 1.6 34.9 65 -4.3 24.2
02:40 1018 30.06 847 25.01 1.6 34.9 64 -4.5 24
02:45 1018 30.06 847 25.01 1.6 34.9 63 -4.6 23.8
02:50 1018 30.06 847 25.01 1.5 34.6 65 -4.4 24.1
02:55 1018 30.06 847 25.01 1.1 34 67 -4.4 24.1
03:00 1018 30.06 847 25.01 1 33.7 67 -4.4 24
03:05 1018 30.06 847 25.01 1 33.9 66 -4.5 23.8
03:10 1018 30.06 847 25.01 1.3 34.3 66 -4.4 24.2
03:15 1018 30.06 847 25.01 1.6 34.8 65 -4.4 24.1
03:20 1018 30.06 847 25.01 1.5 34.8 65 -4.4 24.1
03:25 1018 30.06 847 25.01 1.4 34.5 65 -4.5 23.9
03:30 1018 30.06 847 25.01 1.4 34.5 65 -4.5 23.9
03:35 1018 30.06 847 25.01 1.4 34.6 64 -4.5 23.8
03:40 1018 30.06 847 25.01 1.4 34.6 65 -4.5 23.9
03:45 1018 30.06 847 25.01 1.6 34.8 64 -4.5 23.9
03:50 1018 30.06 847 25.01 1.5 34.8 64 -4.5 23.9
03:55 1018 30.06 848 25.04 1.5 34.6 64 -4.5 23.8
04:00 1018 30.06 848 25.04 1.5 34.8 64 -4.6 23.7
04:05 1018 30.06 848 25.04 1.5 34.7 64 -4.5 23.8
04:10 1018 30.06 848 25.04 1.3 34.4 65 -4.6 23.7
04:15 1018 30.06 848 25.04 1.2 34.2 65 -4.6 23.6
04:20 1018 30.06 848 25.04 1.4 34.5 64 -4.8 23.4
04:25 1019 30.09 848 25.04 1.4 34.5 64 -4.7 23.5
04:30 1019 30.09 848 25.04 1.2 34.2 64 -4.7 23.5
04:35 1019 30.09 848 25.04 1.1 34 65 -4.8 23.4
04:40 1019 30.09 848 25.04 1.2 34.2 64 -4.8 23.3
04:45 1019 30.09 848 25.04 1.4 34.5 63 -4.9 23.2
04:50 1019 30.09 848 25.04 1.5 34.7 63 -4.8 23.4
04:55 1019 30.09 848 25.04 1.4 34.5 64 -4.7 23.5
05:00 1019 30.09 848 25.04 1.5 34.6 63 -4.8 23.4
05:05 1019 30.09 848 25.04 1.5 34.6 64 -4.7 23.6
05:10 1019 30.09 848 25.04 1.4 34.5 64 -4.7 23.5
05:15 1019 30.09 848 25.04 1.3 34.4 64 -4.7 23.5
05:20 1019 30.09 848 25.04 1.3 34.3 65 -4.7 23.6
05:25 1019 30.09 848 25.04 1.1 34 65 -4.7 23.6
05:30 1019 30.09 848 25.04 1 33.8 65 -4.8 23.4
05:35 1019 30.09 848 25.04 1.3 34.3 64 -4.8 23.3
05:40 1019 30.09 848 25.04 1.4 34.5 64 -4.6 23.7
05:45 1019 30.09 848 25.04 1.2 34.1 66 -4.6 23.8
05:50 1019 30.09 848 25.04 1.1 33.9 66 -4.6 23.7
05:55 1019 30.09 848 25.04 1 33.9 66 -4.6 23.8
06:00 1019 30.09 848 25.04 1.1 33.9 65 -4.8 23.3
06:05 1019 30.09 848 25.04 1.3 34.4 64 -4.7 23.5
06:10 1019 30.09 848 25.04 1.3 34.3 64 -4.8 23.3
06:15 1019 30.09 848 25.04 1.3 34.3 64 -4.9 23.2
06:20 1019 30.09 848 25.04 1.5 34.7 63 -4.7 23.5
06:25 1019 30.09 848 25.04 1.3 34.3 64 -4.7 23.6
06:30 1019 30.09 848 25.04 1.4 34.6 63 -4.8 23.3
06:35 1019 30.09 848 25.04 1.9 35.4 61 -4.9 23.2
06:40 1019 30.09 848 25.04 2.1 35.8 60 -4.8 23.4
06:45 1019 30.09 848 25.04 2.2 36 60 -4.7 23.5
06:50 1019 30.09 848 25.04 2.2 36 60 -4.7 23.5
06:55 1019 30.09 848 25.04 2.2 35.9 61 -4.6 23.7
07:00 1019 30.09 848 25.04 2.3 36.2 60 -4.6 23.6
07:05 1019 30.09 849 25.07 2.6 36.6 59 -4.6 23.7
07:10 1019 30.09 849 25.07 2.7 36.9 59 -4.4 24.1
07:15 1019 30.09 848 25.04 2.6 36.7 60 -4.4 24.2
07:20 1019 30.09 849 25.07 2.4 36.4 60 -4.4 24
07:25 1019 30.09 849 25.07 2.8 37 59 -4.5 24
07:30 1019 30.09 849 25.07 3.2 37.7 57 -4.6 23.7
07:35 1019 30.09 849 25.07 3.3 38 57 -4.4 24
07:40 1019 30.09 849 25.07 3.7 38.7 55 -4.5 24
07:45 1019 30.09 849 25.07 3.7 38.7 56 -4.3 24.2
07:50 1019 30.09 849 25.07 4.1 39.4 55 -4.2 24.4
07:55 1019 30.09 849 25.07 4.7 40.4 52 -4.4 24.1
08:00 1019 30.09 849 25.07 4.8 40.6 54 -3.7 25.4
08:05 1019 30.09 849 25.07 4.6 40.3 54 -4 24.8
08:10 1019 30.09 849 25.07 4.7 40.4 53 -4 24.7
08:15 1019 30.09 849 25.07 5.2 41.4 52 -4 24.9
08:20 1019 30.09 849 25.07 5.4 41.7 50 -4.1 24.7
08:25 1019 30.09 849 25.07 5.7 42.3 48 -4.4 24.1
08:30 1019 30.09 849 25.07 6.5 43.8 45 -4.6 23.7
08:35 1019 30.09 849 25.07 6.6 43.9 45 -4.3 24.2
08:40 1019 30.09 849 25.07 7.2 45 45 -4 24.8
08:45 1019 30.09 849 25.07 7.9 46.2 42 -4.3 24.2
08:50 1019 30.09 849 25.07 8.5 47.2 40 -4.2 24.4
08:55 1019 30.09 849 25.07 8.3 46.9 40 -4.5 23.9
09:00 1019 30.09 849 25.07 8 46.4 42 -4.2 24.4
09:05 1019 30.09 849 25.07 7.7 45.8 42 -4.6 23.8
09:10 1019 30.09 849 25.07 8.5 47.4 39 -4.8 23.4
09:15 1019 30.09 849 25.07 9.5 49.2 37 -4.4 24.1
09:20 1019 30.09 849 25.07 9.2 48.5 37 -4.6 23.7
09:25 1019 30.09 849 25.07 9.6 49.2 36 -4.7 23.5
09:30 1019 30.09 849 25.07 9.9 49.9 36 -4.5 23.9
09:35 1019 30.09 849 25.07 10.2 50.4 37 -3.8 25.2
09:40 1019 30.09 849 25.07 10.1 50.2 36 -4.1 24.6
09:45 1019 30.09 849 25.07 9.8 49.7 35 -4.7 23.5
09:50 1019 30.09 849 25.07 10.4 50.7 34 -4.7 23.6
09:55 1019 30.09 849 25.07 11 51.8 33 -4.8 23.4
10:00 1019 30.09 849 25.07 10.9 51.7 33 -4.7 23.5
10:05 1019 30.09 849 25.07 11.3 52.3 33 -4.3 24.3
10:10 1019 30.09 849 25.07 10.6 51.1 33 -5 22.9
10:15 1019 30.09 849 25.07 11 51.8 33 -4.5 23.9
10:20 1019 30.09 849 25.07 11.5 52.7 32 -4.6 23.8
10:25 1019 30.09 849 25.07 11.6 52.8 33 -4.2 24.5
10:30 1019 30.09 849 25.07 11.1 52 33 -4.7 23.5
10:35 1019 30.09 849 25.07 12 53.6 32 -4.3 24.2
10:40 1019 30.09 849 25.07 12.4 54.4 30 -4.5 23.9
10:45 1019 30.09 849 25.07 12.6 54.6 30 -4.5 24
10:50 1019 30.09 848 25.04 12.4 54.2 30 -4.5 23.9
10:55 1019 30.09 848 25.04 12.3 54.2 31 -4.5 23.9
11:00 1019 30.09 848 25.04 12.6 54.8 29 -4.7 23.5
11:05 1019 30.09 848 25.04 13.1 55.6 30 -4.1 24.7
11:10 1019 30.09 848 25.04 12.8 55.1 30 -4.1 24.6
11:15 1019 30.09 848 25.04 12.4 54.2 30 -4.6 23.8
11:20 1019 30.09 848 25.04 13.3 56 28 -4.8 23.4
11:25 1019 30.09 848 25.04 12.9 55.3 31 -3.9 24.9
11:30 1019 30.09 848 25.04 12.4 54.3 30 -4.8 23.3
11:35 1019 30.09 848 25.04 12.8 55.1 28 -5.1 22.8
11:40 1019 30.09 848 25.04 13 55.5 29 -4.6 23.6
11:45 1019 30.09 848 25.04 12.9 55.1 28 -5.3 22.5
11:50 1019 30.09 848 25.04 13.2 55.8 27 -5.3 22.5
11:55 1019 30.09 848 25.04 14.3 57.8 25 -5.5 22.1
12:00 1019 30.09 848 25.04 14.1 57.4 26 -4.8 23.3
12:05 1019 30.09 848 25.04 13.8 56.8 25 -5.8 21.5
12:10 1019 30.09 848 25.04 14 57.2 25 -5.8 21.5
12:15 1019 30.09 848 25.04 13.3 56 25 -6.1 20.9
12:20 1019 30.09 848 25.04 14.4 57.9 24 -5.8 21.5
12:25 1019 30.09 848 25.04 14.6 58.2 23 -6.1 21.1
12:30 1019 30.09 848 25.04 14.4 57.9 25 -5.4 22.3
12:35 1019 30.09 848 25.04 13.5 56.3 25 -5.9 21.4
12:40 1019 30.09 848 25.04 14 57.1 25 -5.9 21.3
12:45 1019 30.09 848 25.04 14.3 57.8 23 -6.3 20.6
12:50 1019 30.09 848 25.04 14 57.2 24 -6.4 20.5
12:55 1018 30.06 848 25.04 14.2 57.6 24 -6 21.2
13:00 1018 30.06 848 25.04 14.5 58.2 23 -6.1 21.1
13:05 1018 30.06 848 25.04 14.6 58.2 23 -6.4 20.4
13:10 1018 30.06 848 25.04 14.8 58.7 22 -6.5 20.3
13:15 1018 30.06 848 25.04 14.4 57.9 23 -6.5 20.3
13:20 1018 30.06 848 25.04 15 59.1 22 -6.3 20.6
13:25 1018 30.06 848 25.04 14.9 58.9 21 -7 19.3
13:30 1018 30.06 848 25.04 15.1 59.2 22 -6.7 20
13:35 1018 30.06 848 25.04 15.9 60.6 21 -6.6 20.1
13:40 1018 30.06 848 25.04 15.4 59.7 22 -6.2 20.9
13:45 1018 30.06 848 25.04 14.6 58.3 22 -7.1 19.3
13:50 1018 30.06 847 25.01 15.1 59.2 21 -6.8 19.7
13:55 1018 30.06 847 25.01 15.3 59.5 22 -6.3 20.6
14:00 1018 30.06 847 25.01 15.3 59.5 22 -6.5 20.2
14:05 1018 30.06 847 25.01 15.2 59.3 22 -6.4 20.5
14:10 1018 30.06 847 25.01 15.4 59.6 23 -5.8 21.6
14:15 1018 30.06 847 25.01 15.5 60 22 -6.2 20.8
14:20 1018 30.06 847 25.01 15.9 60.5 21 -6.3 20.7
14:25 1018 30.06 847 25.01 15.3 59.5 24 -5.3 22.4
14:30 1018 30.06 847 25.01 15.1 59.2 23 -6 21.2
14:35 1018 30.06 847 25.01 15.2 59.4 22 -6.3 20.7
14:40 1018 30.06 847 25.01 15.4 59.7 21 -6.8 19.8
14:45 1018 30.06 847 25.01 14.5 58.1 21 -7.3 18.9
14:50 1018 30.06 847 25.01 14.6 58.3 22 -7 19.4
14:55 1018 30.06 847 25.01 15.1 59.2 20 -7.4 18.7
15:00 1018 30.06 847 25.01 15.2 59.3 23 -5.7 21.7
15:05 1018 30.06 847 25.01 14.8 58.7 21 -7.2 19
15:10 1018 30.06 847 25.01 16.1 60.9 21 -6.5 20.3
15:15 1018 30.06 847 25.01 16.2 61.1 21 -6.4 20.5
15:20 1018 30.06 847 25.01 15.8 60.5 19 -7.5 18.4
15:25 1018 30.06 847 25.01 15.2 59.3 21 -7 19.4
15:30 1018 30.06 847 25.01 14.7 58.4 21 -7.4 18.6
15:35 1017 30.03 847 25.01 15.2 59.3 21 -7.1 19.2
15:40 1017 30.03 847 25.01 15.3 59.6 20 -7.2 19
15:45 1017 30.03 847 25.01 15.5 59.8 22 -6.2 20.9
15:50 1017 30.03 847 25.01 15.5 60 20 -7.5 18.6
15:55 1017 30.03 847 25.01 15.2 59.3 23 -5.9 21.3
16:00 1017 30.03 847 25.01 15.1 59.2 22 -6.4 20.4
16:05 1017 30.03 847 25.01 15.2 59.3 22 -6.6 20.1
16:10 1017 30.03 847 25.01 14.9 58.8 21 -7.4 18.6
16:15 1017 30.03 847 25.01 14.2 57.6 21 -7.8 18
16:20 1017 30.03 847 25.01 13.9 57.1 21 -7.8 17.9
16:25 1017 30.03 847 25.01 14.1 57.3 23 -6.6 20.2
16:30 1017 30.03 847 25.01 14.2 57.5 22 -7.1 19.2
16:35 1017 30.03 847 25.01 13.9 57 22 -7.3 18.9
16:40 1017 30.03 847 25.01 14.2 57.5 21 -7.8 18
16:45 1017 30.03 847 25.01 14.4 57.9 21 -7.6 18.4
16:50 1017 30.03 847 25.01 14.5 58 21 -7.5 18.5
16:55 1017 30.03 847 25.01 14.7 58.5 20 -7.7 18.2
17:00 1017 30.03 847 25.01 14.6 58.3 20 -7.8 18
17:05 1017 30.03 847 25.01 14.6 58.3 21 -7.7 18.1
17:10 1017 30.03 847 25.01 14.6 58.2 21 -7.3 18.8
17:15 1017 30.03 847 25.01 14.6 58.3 20 -7.9 17.8
17:20 1017 30.03 847 25.01 14.6 58.2 21 -7.5 18.5
17:25 1017 30.03 847 25.01 14.2 57.6 21 -7.7 18.2
17:30 1017 30.03 847 25.01 14.3 57.7 21 -7.4 18.6
17:35 1017 30.03 847 25.01 14.4 57.9 22 -6.8 19.7
17:40 1017 30.03 847 25.01 14.5 58 22 -7.2 19.1
17:45 1017 30.03 847 25.01 14.5 58.2 21 -7.3 18.8
17:50 1018 30.06 847 25.01 14.5 58.1 22 -7.1 19.1
17:55 1018 30.06 847 25.01 14.1 57.3 23 -6.6 20.2
18:00 1018 30.06 847 25.01 13.6 56.4 24 -6.3 20.6
18:05 1018 30.06 847 25.01 13.3 56 25 -6.2 20.8
18:10 1018 30.06 847 25.01 13.2 55.8 25 -6.1 21.1
18:15 1018 30.06 847 25.01 13.2 55.7 26 -5.8 21.5
18:20 1018 30.06 847 25.01 13.1 55.6 25 -6.3 20.7
18:25 1018 30.06 847 25.01 13 55.5 26 -6 21.2
18:30 1018 30.06 847 25.01 12.9 55.3 27 -5.5 22.2
18:35 1018 30.06 847 25.01 12.8 55.1 27 -5.7 21.7
18:40 1018 30.06 847 25.01 12.7 54.9 27 -5.8 21.6
18:45 1018 30.06 847 25.01 12.6 54.6 27 -5.9 21.4
18:50 1018 30.06 847 25.01 12.4 54.4 27 -5.8 21.5
18:55 1018 30.06 847 25.01 12.3 54.1 28 -5.8 21.5
19:00 1018 30.06 847 25.01 11.2 52.1 34 -4.2 24.4
19:05 1018 30.06 847 25.01 10.8 51.4 32 -5.4 22.3
19:10 1018 30.06 847 25.01 11.1 52.1 30 -5.8 21.6
19:15 1018 30.06 847 25.01 11.4 52.5 29 -5.8 21.5
19:20 1018 30.06 847 25.01 11.6 52.8 29 -5.7 21.7
19:25 1018 30.06 847 25.01 11.7 53 29 -5.6 21.9
19:30 1018 30.06 847 25.01 11.5 52.7 30 -5.5 22
19:35 1018 30.06 847 25.01 11.3 52.4 31 -5.2 22.7
19:40 1018 30.06 847 25.01 10.9 51.6 31 -5.7 21.7
19:45 1018 30.06 847 25.01 11 51.8 31 -5.3 22.5
19:50 1018 30.06 847 25.01 10.8 51.4 32 -5.2 22.7
19:55 1018 30.06 847 25.01 10.6 51.1 32 -5.2 22.6
20:00 1018 30.06 847 25.01 10.2 50.4 35 -4.5 23.9
20:05 1018 30.06 847 25.01 9.6 49.3 38 -4.1 24.7
20:10 1018 30.06 847 25.01 9.2 48.6 37 -4.8 23.3
20:15 1018 30.06 847 25.01 9.2 48.6 37 -4.6 23.7
20:20 1018 30.06 847 25.01 8.8 47.8 40 -4 24.8
20:25 1018 30.06 847 25.01 8.3 47 40 -4.5 23.8
20:30 1018 30.06 847 25.01 8 46.3 42 -4.1 24.6
20:35 1018 30.06 848 25.04 7.4 45.4 45 -3.8 25.2
20:40 1018 30.06 848 25.04 7.2 44.9 44 -4.2 24.5
20:45 1018 30.06 848 25.04 7.3 45.2 43 -4.4 24
20:50 1018 30.06 848 25.04 7.6 45.7 43 -4.2 24.5
20:55 1018 30.06 848 25.04 7.7 45.9 41 -4.7 23.5
21:00 1018 30.06 848 25.04 7.9 46.2 40 -5 22.9
21:05 1018 30.06 848 25.04 8 46.4 40 -4.8 23.4
21:10 1018 30.06 848 25.04 7.7 45.9 41 -4.6 23.7
21:15 1018 30.06 848 25.04 7.5 45.5 41 -4.8 23.4
21:20 1018 30.06 848 25.04 7.4 45.2 44 -4.2 24.4
21:25 1019 30.09 848 25.04 7 44.7 42 -4.9 23.1
21:30 1019 30.09 848 25.04 7.5 45.5 40 -5.3 22.5
21:35 1019 30.09 848 25.04 7.8 46 40 -5.1 22.8
21:40 1019 30.09 848 25.04 7.9 46.2 39 -5.2 22.7
21:45 1019 30.09 848 25.04 7.9 46.2 41 -4.4 24
21:50 1019 30.09 848 25.04 7.7 45.8 41 -4.6 23.7
21:55 1019 30.09 848 25.04 7.6 45.8 40 -5.2 22.7
22:00 1019 30.09 848 25.04 7.7 45.8 41 -4.7 23.6
22:05 1019 30.09 848 25.04 7.5 45.4 43 -4.3 24.2
22:10 1019 30.09 848 25.04 7 44.5 43 -4.7 23.5
22:15 1019 30.09 848 25.04 6.9 44.4 43 -4.8 23.4
22:20 1019 30.09 848 25.04 6.6 43.9 44 -4.8 23.4
22:25 1019 30.09 848 25.04 6.7 44.1 45 -4.4 24.1
22:30 1019 30.09 848 25.04 6.5 43.7 46 -4.2 24.4
22:35 1019 30.09 848 25.04 6.4 43.4 47 -4.1 24.6
22:40 1019 30.09 848 25.04 6.2 43.1 49 -3.8 25.1
22:45 1019 30.09 848 25.04 6.1 43 47 -4.2 24.4
22:50 1019 30.09 848 25.04 6.6 43.8 45 -4.4 24.1
22:55 1019 30.09 848 25.04 6.4 43.5 47 -4 24.9
23:00 1019 30.09 848 25.04 6 42.8 47 -4.3 24.2
23:05 1019 30.09 848 25.04 6.1 43 46 -4.5 23.9
23:10 1019 30.09 848 25.04 6 42.8 48 -4.1 24.7
23:15 1019 30.09 848 25.04 5.6 42.1 50 -4.1 24.6
23:20 1019 30.09 848 25.04 5.6 42 49 -4.4 24.2
23:25 1019 30.09 848 25.04 5.6 42 49 -4.2 24.5
23:30 1019 30.09 848 25.04 5.5 41.8 50 -4.1 24.7
23:35 1019 30.09 848 25.04 5.3 41.6 51 -4.1 24.6
23:40 1019 30.09 848 25.04 5.4 41.7 50 -4.2 24.4
23:45 1019 30.09 848 25.04 5.4 41.7 51 -4 24.8
23:50 1019 30.09 848 25.04 5.2 41.3 51 -4.1 24.6
23:55 1019 30.09 848 25.04 5.2 41.3 50 -4.4 24.1
24:00 1019 30.09 848 25.04 5.3 41.5 50 -4.3 24.3